createdAt,value
2019-04-16T00:02:04.489Z,11.24
2019-04-16T00:07:13.365Z,11.40
2019-04-16T00:12:22.251Z,11.17
2019-04-16T00:17:31.093Z,11.06
2019-04-16T00:22:39.991Z,10.72
2019-04-16T00:27:48.995Z,11.10
2019-04-16T00:32:57.796Z,10.51
2019-04-16T00:38:06.710Z,11.62
2019-04-16T00:43:15.583Z,10.92
2019-04-16T00:48:24.539Z,10.67
2019-04-16T00:53:33.439Z,10.96
2019-04-16T00:58:42.281Z,11.01
2019-04-16T01:03:51.143Z,11.15
2019-04-16T01:08:59.996Z,11.38
2019-04-16T01:14:08.901Z,10.44
2019-04-16T01:19:17.791Z,10.60
2019-04-16T01:24:26.666Z,10.66
2019-04-16T01:29:35.543Z,10.97
2019-04-16T01:34:47.020Z,10.57
2019-04-16T01:39:52.896Z,11.08
2019-04-16T01:45:02.171Z,10.74
2019-04-16T01:50:13.859Z,11.04
2019-04-16T01:55:19.084Z,10.77
2019-04-16T02:00:27.988Z,11.11
2019-04-16T02:05:36.907Z,11.02
2019-04-16T02:10:45.801Z,11.53
2019-04-16T02:15:54.711Z,11.27
2019-04-16T02:21:03.675Z,10.37
2019-04-16T02:26:12.538Z,11.15
2019-04-16T02:31:21.445Z,10.77
2019-04-16T02:36:30.308Z,10.77
2019-04-16T02:41:39.264Z,11.52
2019-04-16T02:46:48.149Z,11.24
2019-04-16T02:51:57.051Z,11.67
2019-04-16T02:57:05.945Z,10.96
2019-04-16T03:02:14.821Z,10.97
2019-04-16T03:07:23.685Z,10.93
2019-04-16T03:12:32.564Z,11.57
2019-04-16T03:17:42.733Z,12.04
2019-04-16T03:22:49.903Z,11.92
2019-04-16T03:27:58.792Z,12.09
2019-04-16T03:33:12.834Z,12.00
2019-04-16T03:38:16.072Z,11.98
2019-04-16T03:43:24.931Z,11.57
2019-04-16T03:48:33.991Z,12.91
2019-04-16T03:53:42.863Z,12.03
2019-04-16T03:58:51.756Z,11.69
2019-04-16T04:04:00.636Z,11.77
2019-04-16T04:09:09.569Z,12.25
2019-04-16T04:14:22.362Z,12.08
2019-04-16T04:19:26.836Z,12.05
2019-04-16T04:24:35.685Z,11.66
2019-04-16T04:29:46.266Z,11.76
2019-04-16T04:34:53.031Z,12.45
2019-04-16T04:40:01.993Z,12.21
2019-04-16T04:45:10.833Z,12.21
2019-04-16T04:50:19.707Z,11.61
2019-04-16T04:55:28.555Z,11.70
2019-04-16T05:00:40.088Z,10.37
2019-04-16T05:05:45.879Z,8.98
2019-04-16T05:10:59.851Z,9.34
2019-04-16T05:16:03.227Z,8.81
2019-04-16T05:21:12.104Z,8.96
2019-04-16T05:26:21.068Z,8.96
2019-04-16T05:31:31.179Z,8.52
2019-04-16T05:36:40.164Z,9.45
2019-04-16T05:41:46.762Z,8.68
2019-04-16T05:46:55.640Z,8.09
2019-04-16T05:52:04.575Z,7.17
2019-04-16T05:57:13.464Z,7.45
2019-04-16T06:02:22.340Z,7.64
2019-04-16T06:07:31.253Z,7.37
2019-04-16T06:12:40.685Z,7.58
2019-04-16T06:17:48.535Z,7.90
2019-04-16T06:23:00.580Z,7.46
2019-04-16T06:28:05.807Z,7.16
2019-04-16T06:33:14.930Z,7.17
2019-04-16T06:38:23.729Z,7.75
2019-04-16T06:43:32.432Z,7.77
2019-04-16T06:48:42.566Z,7.59
2019-04-16T06:53:49.731Z,8.01
2019-04-16T06:58:58.570Z,7.56
2019-04-16T07:04:07.436Z,7.90
2019-04-16T07:09:16.303Z,7.27
2019-04-16T07:14:25.230Z,7.24
2019-04-16T07:19:34.090Z,6.95
2019-04-16T07:24:42.988Z,6.73
2019-04-16T07:29:51.955Z,7.15
2019-04-16T07:35:00.696Z,7.68
2019-04-16T07:40:10.482Z,7.35
2019-04-16T07:45:17.973Z,8.11
2019-04-16T07:50:29.503Z,8.00
2019-04-16T07:55:35.255Z,8.49
2019-04-16T08:00:44.101Z,8.44
2019-04-16T08:05:52.956Z,7.44
2019-04-16T08:11:01.814Z,7.30
2019-04-16T08:16:10.683Z,7.82
2019-04-16T08:21:22.338Z,7.62
2019-04-16T08:26:27.929Z,7.19
2019-04-16T08:31:36.830Z,6.63
2019-04-16T08:36:45.684Z,6.77
2019-04-16T08:41:54.559Z,7.11
2019-04-16T08:47:03.457Z,6.62
2019-04-16T08:52:12.311Z,7.13
2019-04-16T08:57:21.167Z,7.09
2019-04-16T09:02:30.047Z,7.02
2019-04-16T09:07:38.914Z,7.76
2019-04-16T09:13:02.010Z,7.27
2019-04-16T09:17:56.460Z,7.11
2019-04-16T09:23:05.049Z,7.64
2019-04-16T09:28:25.232Z,6.80
2019-04-16T09:33:22.300Z,7.47
2019-04-16T09:38:31.192Z,7.53
2019-04-16T09:43:40.373Z,6.99
2019-04-16T09:48:50.155Z,7.45
2019-04-16T09:53:57.369Z,7.77
2019-04-16T09:59:06.237Z,6.60
2019-04-16T10:04:15.088Z,6.72
2019-04-16T10:09:23.972Z,7.56
2019-04-16T10:14:32.822Z,6.49
2019-04-16T10:19:43.285Z,8.04
2019-04-16T10:24:50.196Z,7.51
2019-04-16T10:29:59.047Z,7.90
2019-04-16T10:35:07.897Z,6.98
2019-04-16T10:40:16.788Z,8.02
2019-04-16T10:45:25.666Z,8.24
2019-04-16T10:50:34.614Z,8.28
2019-04-16T10:55:43.444Z,7.39
2019-04-16T11:00:52.457Z,8.09
2019-04-16T11:06:01.316Z,8.73
2019-04-16T11:11:10.049Z,8.49
2019-04-16T11:16:19.328Z,8.10
2019-04-16T11:21:27.336Z,9.84
2019-04-16T11:26:36.228Z,8.23
2019-04-16T11:31:45.106Z,9.27
2019-04-16T11:36:54.050Z,8.73
2019-04-16T11:42:02.851Z,9.95
2019-04-16T11:47:11.700Z,9.93
2019-04-16T11:52:20.721Z,10.13
2019-04-16T11:57:33.206Z,8.83
2019-04-16T12:02:38.811Z,9.37
2019-04-16T12:07:47.104Z,10.25
2019-04-16T12:12:54.801Z,11.03
2019-04-16T12:18:03.950Z,10.97
2019-04-16T12:23:12.718Z,10.33
2019-04-16T12:28:21.439Z,9.04
2019-04-16T12:33:30.266Z,9.54
2019-04-16T12:38:39.207Z,9.98
2019-04-16T12:43:50.768Z,9.58
2019-04-16T12:48:56.503Z,10.33
2019-04-16T12:54:05.611Z,9.93
2019-04-16T12:59:14.185Z,9.35
2019-04-16T13:04:23.068Z,10.52
2019-04-16T13:09:31.942Z,10.17
2019-04-16T13:14:40.834Z,9.59
2019-04-16T13:19:49.679Z,9.61
2019-04-16T13:24:58.568Z,9.42
2019-04-16T13:30:07.416Z,10.34
2019-04-16T13:35:16.348Z,9.56
2019-04-16T13:40:25.191Z,10.64
2019-04-16T13:45:34.265Z,10.93
2019-04-16T13:50:43.144Z,10.29
2019-04-16T13:55:52.018Z,10.01
2019-04-16T14:01:00.899Z,10.73
2019-04-16T14:06:10.933Z,11.21
2019-04-16T14:11:19.843Z,11.77
2019-04-16T14:16:26.642Z,9.56
2019-04-16T14:21:35.511Z,10.22
2019-04-16T14:26:44.376Z,10.85
2019-04-16T14:31:53.240Z,10.60
2019-04-16T14:37:02.101Z,10.21
2019-04-16T14:42:11.019Z,10.90
2019-04-16T14:47:19.887Z,11.22
2019-04-16T14:52:28.789Z,11.15
2019-04-16T14:57:39.814Z,11.27
2019-04-16T15:02:46.100Z,13.56
2019-04-16T15:07:54.963Z,12.66
2019-04-16T15:13:03.987Z,11.89
2019-04-16T15:18:12.711Z,11.30
2019-04-16T15:23:21.541Z,12.99
2019-04-16T15:28:30.438Z,13.96
2019-04-16T15:33:39.785Z,13.57
2019-04-16T15:38:47.694Z,13.73
2019-04-16T15:43:56.575Z,10.94
2019-04-16T15:49:05.460Z,11.73
2019-04-16T15:54:14.363Z,12.71
2019-04-16T15:59:23.249Z,11.00
2019-04-16T16:04:32.161Z,11.28
2019-04-16T16:14:47.358Z,18.78
2019-04-16T16:19:56.244Z,20.41
2019-04-16T16:25:06.083Z,19.85
2019-04-16T16:30:15.030Z,18.70
2019-04-16T16:35:21.965Z,16.44
2019-04-16T16:40:30.851Z,17.63
2019-04-16T16:45:39.696Z,17.42
2019-04-16T16:50:51.444Z,19.42
2019-04-16T16:55:57.016Z,20.20
2019-04-16T17:01:05.929Z,20.93
2019-04-16T17:06:14.774Z,20.97
2019-04-16T17:11:23.660Z,18.89
2019-04-16T17:16:32.557Z,18.25
2019-04-16T17:21:41.419Z,17.94
2019-04-16T17:26:50.849Z,18.19
2019-04-16T17:31:58.692Z,18.13
2019-04-16T17:37:07.588Z,18.45
2019-04-16T17:42:16.478Z,18.37
2019-04-16T17:47:32.302Z,17.51
2019-04-16T17:52:33.745Z,16.33
2019-04-16T17:57:42.897Z,16.64
2019-04-16T18:02:51.539Z,17.65
2019-04-16T18:08:00.419Z,16.63
2019-04-16T18:13:09.284Z,17.66
2019-04-16T18:18:18.229Z,17.26
2019-04-16T18:23:27.876Z,17.02
2019-04-16T18:28:35.451Z,18.10
2019-04-16T18:33:44.333Z,17.44
2019-04-16T18:38:53.233Z,18.26
2019-04-16T18:44:01.613Z,18.55
2019-04-16T18:49:10.512Z,18.39
2019-04-16T18:54:19.428Z,18.62
2019-04-16T18:59:28.307Z,19.26
2019-04-16T19:04:37.181Z,18.53
2019-04-16T19:09:46.038Z,19.46
2019-04-16T19:14:54.980Z,18.90
2019-04-16T19:20:04.856Z,18.54
2019-04-16T19:25:12.255Z,18.33
2019-04-16T19:30:22.760Z,19.16
2019-04-16T19:35:29.529Z,18.94
2019-04-16T19:40:38.380Z,18.41
2019-04-16T19:45:47.269Z,17.97
2019-04-16T19:50:56.112Z,18.04
2019-04-16T19:56:05.003Z,18.81
2019-04-16T20:01:13.852Z,18.26
2019-04-16T20:06:25.551Z,18.38
2019-04-16T20:11:31.167Z,18.62
2019-04-16T20:16:40.033Z,19.11
2019-04-16T20:21:48.931Z,23.61
2019-04-16T20:26:57.783Z,23.05
2019-04-16T20:32:06.659Z,24.08
2019-04-16T20:37:15.492Z,24.29
2019-04-16T20:42:24.376Z,23.34
2019-04-16T20:47:38.469Z,24.45
2019-04-16T20:52:41.639Z,23.84
2019-04-16T20:57:50.488Z,23.59
2019-04-16T21:03:02.580Z,23.79
2019-04-16T21:08:07.747Z,23.73
2019-04-16T21:13:16.860Z,24.44
2019-04-16T21:18:25.543Z,24.88
2019-04-16T21:23:34.934Z,24.65
2019-04-16T21:28:42.896Z,24.44
2019-04-16T21:33:52.336Z,24.88
2019-04-16T21:39:02.999Z,24.92
2019-04-16T21:44:11.499Z,24.99
2019-04-16T21:49:16.953Z,25.37
2019-04-16T21:54:26.832Z,27.40
2019-04-16T21:59:34.193Z,26.47
2019-04-16T22:04:45.380Z,27.04
2019-04-16T22:09:51.495Z,25.47
2019-04-16T22:15:00.337Z,24.95
2019-04-16T22:20:09.248Z,26.32
2019-04-16T22:25:18.122Z,25.56
2019-04-16T22:30:27.011Z,25.06
2019-04-16T22:35:35.856Z,26.39
2019-04-16T22:40:44.716Z,24.35
2019-04-16T22:45:53.565Z,23.74
2019-04-16T22:51:02.456Z,23.23
2019-04-16T22:56:11.321Z,23.06
2019-04-16T23:01:20.259Z,22.89
2019-04-16T23:06:29.099Z,22.67
2019-04-16T23:11:39.123Z,23.11
2019-04-16T23:16:46.359Z,24.08
2019-04-16T23:21:55.213Z,25.52
2019-04-16T23:27:05.705Z,24.75
2019-04-16T23:32:12.492Z,25.45
2019-04-16T23:37:23.395Z,25.87
2019-04-16T23:42:29.751Z,25.90
2019-04-16T23:47:42.068Z,25.22
2019-04-16T23:52:47.071Z,25.21
2019-04-16T23:57:56.683Z,24.26
